createdAt,value
2018-08-17T00:02:06.315Z,18.90
2018-08-17T00:04:34.009Z,18.80
2018-08-17T00:07:01.851Z,18.70
2018-08-17T00:09:29.454Z,18.70
2018-08-17T00:11:57.059Z,18.70
2018-08-17T00:14:24.669Z,18.70
2018-08-17T00:16:52.325Z,18.60
2018-08-17T00:19:19.888Z,18.50
2018-08-17T00:21:47.532Z,18.50
2018-08-17T00:24:15.129Z,18.50
2018-08-17T00:26:42.725Z,18.50
2018-08-17T00:29:10.342Z,18.40
2018-08-17T00:31:37.936Z,18.40
2018-08-17T00:34:05.856Z,18.40
2018-08-17T00:36:33.445Z,18.40
2018-08-17T00:39:01.281Z,18.50
2018-08-17T00:41:28.909Z,18.40
2018-08-17T00:43:56.529Z,18.40
2018-08-17T00:46:24.122Z,18.40
2018-08-17T00:48:51.757Z,18.40
2018-08-17T00:51:19.413Z,18.40
2018-08-17T00:53:47.032Z,18.30
2018-08-17T00:56:14.671Z,18.30
2018-08-17T00:58:42.312Z,18.30
2018-08-17T01:01:10.079Z,18.30
2018-08-17T01:03:37.960Z,18.20
2018-08-17T01:06:05.652Z,18.20
2018-08-17T01:08:33.274Z,18.10
2018-08-17T01:11:00.920Z,18.10
2018-08-17T01:13:28.512Z,18.00
2018-08-17T01:15:56.152Z,18.00
2018-08-17T01:18:23.797Z,18.00
2018-08-17T01:20:51.424Z,18.00
2018-08-17T01:23:19.017Z,18.00
2018-08-17T01:25:46.604Z,17.90
2018-08-17T01:28:14.229Z,17.90
2018-08-17T01:30:41.898Z,17.80
2018-08-17T01:33:09.666Z,17.80
2018-08-17T01:35:37.250Z,17.80
2018-08-17T01:38:04.844Z,17.70
2018-08-17T01:40:32.467Z,17.70
2018-08-17T01:43:00.061Z,17.70
2018-08-17T01:45:27.664Z,17.60
2018-08-17T01:47:55.262Z,17.60
2018-08-17T01:50:22.839Z,17.60
2018-08-17T01:52:50.473Z,17.50
2018-08-17T01:55:18.041Z,17.50
2018-08-17T01:57:45.621Z,17.50
2018-08-17T02:00:13.289Z,17.50
2018-08-17T02:02:43.831Z,17.50
2018-08-17T02:05:11.575Z,17.40
2018-08-17T02:07:39.228Z,17.50
2018-08-17T02:10:09.105Z,17.50
2018-08-17T02:12:37.155Z,17.40
2018-08-17T02:15:05.204Z,17.40
2018-08-17T02:17:32.825Z,17.40
2018-08-17T02:20:00.527Z,17.50
2018-08-17T02:22:28.156Z,17.40
2018-08-17T02:24:55.746Z,17.30
2018-08-17T02:27:23.406Z,17.30
2018-08-17T02:29:51.327Z,17.30
2018-08-17T02:32:18.926Z,17.30
2018-08-17T02:34:46.531Z,17.20
2018-08-17T02:37:14.147Z,17.20
2018-08-17T02:39:41.742Z,17.20
2018-08-17T02:42:09.429Z,17.20
2018-08-17T02:44:37.087Z,17.10
2018-08-17T02:47:04.797Z,17.10
2018-08-17T02:49:32.398Z,17.10
2018-08-17T02:52:00.172Z,17.10
2018-08-17T02:54:27.762Z,17.10
2018-08-17T02:56:55.373Z,17.00
2018-08-17T02:59:23.044Z,17.00
2018-08-17T03:01:50.641Z,17.00
2018-08-17T03:04:18.268Z,17.00
2018-08-17T03:06:45.880Z,17.00
2018-08-17T03:09:13.618Z,17.00
2018-08-17T03:11:41.568Z,16.90
2018-08-17T03:14:09.164Z,16.90
2018-08-17T03:16:36.801Z,16.90
2018-08-17T03:19:04.628Z,16.90
2018-08-17T03:21:32.242Z,16.80
2018-08-17T03:23:59.890Z,16.80
2018-08-17T03:26:27.481Z,16.80
2018-08-17T03:28:55.124Z,16.80
2018-08-17T03:31:22.837Z,16.80
2018-08-17T03:33:50.396Z,16.80
2018-08-17T03:36:18.009Z,16.70
2018-08-17T03:38:45.648Z,16.70
2018-08-17T03:41:13.378Z,16.70
2018-08-17T03:43:41.000Z,16.70
2018-08-17T03:46:08.637Z,16.60
2018-08-17T03:48:36.227Z,16.60
2018-08-17T03:51:03.863Z,16.60
2018-08-17T03:53:31.469Z,16.60
2018-08-17T03:55:59.088Z,16.60
2018-08-17T03:58:26.797Z,16.60
2018-08-17T04:00:54.463Z,16.50
2018-08-17T04:03:22.103Z,16.50
2018-08-17T04:05:49.774Z,16.50
2018-08-17T04:08:17.425Z,16.50
2018-08-17T04:10:45.044Z,16.50
2018-08-17T04:13:12.626Z,16.50
2018-08-17T04:15:40.356Z,16.50
2018-08-17T04:18:09.044Z,16.50
2018-08-17T04:20:37.018Z,16.50
2018-08-17T04:23:04.907Z,16.50
2018-08-17T04:25:32.784Z,16.60
2018-08-17T04:28:00.501Z,16.60
2018-08-17T04:30:28.108Z,16.60
2018-08-17T04:32:55.705Z,16.60
2018-08-17T04:35:23.328Z,16.60
2018-08-17T04:37:50.930Z,16.70
2018-08-17T04:40:18.558Z,16.70
2018-08-17T04:42:46.136Z,16.90
2018-08-17T04:45:13.726Z,16.90
2018-08-17T04:47:41.369Z,17.00
2018-08-17T04:50:09.619Z,17.10
2018-08-17T04:52:37.681Z,17.10
2018-08-17T04:55:05.580Z,17.10
2018-08-17T04:57:33.214Z,17.10
2018-08-17T05:00:00.837Z,17.20
2018-08-17T05:02:28.493Z,17.30
2018-08-17T05:04:56.095Z,17.40
2018-08-17T05:07:23.686Z,17.50
2018-08-17T05:09:51.307Z,17.50
2018-08-17T05:12:18.979Z,17.60
2018-08-17T05:14:46.543Z,17.70
2018-08-17T05:17:14.132Z,17.80
2018-08-17T05:19:41.777Z,17.80
2018-08-17T05:22:09.395Z,17.80
2018-08-17T05:24:36.964Z,17.90
2018-08-17T05:27:04.716Z,18.10
2018-08-17T05:29:32.352Z,18.20
2018-08-17T05:32:00.017Z,18.20
2018-08-17T05:34:27.632Z,18.30
2018-08-17T05:36:55.201Z,18.50
2018-08-17T05:39:22.925Z,18.60
2018-08-17T05:41:50.552Z,18.80
2018-08-17T05:44:18.185Z,19.00
2018-08-17T05:46:45.808Z,19.20
2018-08-17T05:49:13.436Z,19.40
2018-08-17T05:51:41.034Z,19.60
2018-08-17T05:54:08.651Z,19.80
2018-08-17T05:56:36.289Z,20.00
2018-08-17T05:59:03.939Z,20.10
2018-08-17T06:01:31.517Z,20.40
2018-08-17T06:03:59.168Z,20.60
2018-08-17T06:06:26.780Z,20.80
2018-08-17T06:08:54.397Z,21.00
2018-08-17T06:11:22.126Z,21.10
2018-08-17T06:13:49.581Z,21.30
2018-08-17T06:16:17.322Z,21.40
2018-08-17T06:18:44.929Z,21.60
2018-08-17T06:21:12.538Z,21.80
2018-08-17T06:23:40.115Z,22.00
2018-08-17T06:26:07.751Z,22.00
2018-08-17T06:28:35.912Z,22.10
2018-08-17T06:31:03.779Z,22.30
2018-08-17T06:33:31.453Z,22.50
2018-08-17T06:35:59.114Z,22.70
2018-08-17T06:38:26.721Z,23.10
2018-08-17T06:40:54.273Z,23.50
2018-08-17T06:43:21.874Z,23.90
2018-08-17T06:45:49.545Z,24.30
2018-08-17T06:48:17.280Z,24.70
2018-08-17T06:50:44.997Z,25.10
2018-08-17T06:53:12.665Z,25.30
2018-08-17T06:55:40.290Z,25.50
2018-08-17T06:58:07.937Z,25.70
2018-08-17T07:00:35.597Z,26.00
2018-08-17T07:03:03.394Z,26.10
2018-08-17T07:05:31.044Z,26.20
2018-08-17T07:07:58.752Z,26.30
2018-08-17T07:10:26.361Z,26.50
2018-08-17T07:12:53.965Z,26.50
2018-08-17T07:15:21.685Z,26.80
2018-08-17T07:17:49.331Z,27.10
2018-08-17T07:20:20.635Z,27.40
2018-08-17T07:22:48.465Z,27.70
2018-08-17T07:25:16.227Z,27.80
2018-08-17T07:27:44.024Z,27.90
2018-08-17T07:30:11.616Z,28.00
2018-08-17T07:32:39.261Z,28.00
2018-08-17T07:35:08.608Z,28.30
2018-08-17T07:37:36.236Z,28.40
2018-08-17T07:40:04.109Z,28.50
2018-08-17T07:42:31.717Z,28.60
2018-08-17T07:44:59.327Z,28.50
2018-08-17T07:47:26.951Z,28.70
2018-08-17T07:49:54.602Z,28.80
2018-08-17T07:52:22.210Z,28.80
2018-08-17T07:54:50.011Z,28.80
2018-08-17T07:57:17.586Z,28.90
2018-08-17T07:59:45.215Z,29.10
2018-08-17T08:02:12.841Z,29.10
2018-08-17T08:04:40.457Z,29.30
2018-08-17T08:07:08.099Z,29.70
2018-08-17T08:09:35.692Z,29.80
2018-08-17T08:12:03.432Z,29.90
2018-08-17T08:14:31.098Z,29.80
2018-08-17T08:16:58.746Z,29.80
2018-08-17T08:19:26.368Z,29.80
2018-08-17T08:21:54.109Z,29.70
2018-08-17T08:24:21.708Z,29.70
2018-08-17T08:26:49.351Z,29.50
2018-08-17T08:29:17.107Z,29.90
2018-08-17T08:31:44.783Z,31.30
2018-08-17T08:34:12.734Z,32.60
2018-08-17T08:36:40.351Z,34.30
2018-08-17T08:39:09.944Z,35.30
2018-08-17T08:41:37.641Z,35.30
2018-08-17T08:44:05.759Z,36.00
2018-08-17T08:46:33.393Z,37.50
2018-08-17T08:49:01.259Z,39.00
2018-08-17T08:51:28.937Z,40.10
2018-08-17T08:53:56.658Z,40.80
2018-08-17T08:56:24.275Z,41.60
2018-08-17T08:58:52.195Z,42.20
2018-08-17T09:01:19.850Z,42.90
2018-08-17T09:03:47.578Z,43.70
2018-08-17T09:06:15.206Z,44.00
2018-08-17T09:08:43.265Z,44.60
2018-08-17T09:11:10.961Z,45.00
2018-08-17T09:13:38.608Z,45.20
2018-08-17T09:16:06.189Z,45.00
2018-08-17T09:18:33.752Z,45.70
2018-08-17T09:21:01.351Z,46.60
2018-08-17T09:23:29.049Z,46.80
2018-08-17T09:25:56.638Z,47.50
2018-08-17T09:28:24.233Z,48.30
2018-08-17T09:30:51.798Z,49.20
2018-08-17T09:33:19.475Z,49.30
2018-08-17T09:35:47.094Z,48.60
2018-08-17T09:38:14.655Z,49.30
2018-08-17T09:40:42.313Z,49.10
2018-08-17T09:43:10.020Z,49.70
2018-08-17T09:45:37.768Z,50.30
2018-08-17T09:48:05.809Z,49.80
2018-08-17T09:50:35.308Z,49.90
2018-08-17T09:53:03.281Z,50.10
2018-08-17T09:55:30.881Z,50.70
2018-08-17T09:57:58.448Z,51.40
2018-08-17T10:00:31.567Z,52.10
2018-08-17T10:03:04.939Z,52.90
2018-08-17T10:05:39.135Z,52.80
2018-08-17T10:08:12.692Z,52.90
2018-08-17T10:10:40.442Z,52.70
2018-08-17T10:13:08.042Z,53.60
2018-08-17T10:15:35.644Z,53.60
2018-08-17T10:18:03.229Z,53.60
2018-08-17T10:20:30.817Z,53.40
2018-08-17T10:22:58.454Z,53.10
2018-08-17T10:25:26.278Z,54.00
2018-08-17T10:27:56.192Z,54.40
2018-08-17T10:30:24.196Z,54.20
2018-08-17T10:32:53.493Z,53.60
2018-08-17T10:35:28.462Z,52.60
2018-08-17T10:37:59.305Z,51.70
2018-08-17T10:40:27.282Z,50.50
2018-08-17T10:42:54.949Z,49.90
2018-08-17T10:45:23.534Z,49.80
2018-08-17T10:47:51.806Z,49.60
2018-08-17T10:50:20.619Z,48.60
2018-08-17T10:52:50.331Z,48.70
2018-08-17T10:55:18.118Z,48.60
2018-08-17T10:57:45.817Z,48.50
2018-08-17T11:00:16.932Z,48.70
2018-08-17T11:02:44.929Z,49.40
2018-08-17T11:05:13.983Z,49.50
2018-08-17T11:07:41.655Z,50.50
2018-08-17T11:10:10.325Z,51.00
2018-08-17T11:12:38.992Z,51.30
2018-08-17T11:15:06.762Z,51.90
2018-08-17T11:17:34.757Z,52.30
2018-08-17T11:20:02.456Z,51.80
2018-08-17T11:22:30.063Z,52.60
2018-08-17T11:24:58.037Z,52.70
2018-08-17T11:27:25.708Z,52.20
2018-08-17T11:29:53.310Z,52.40
2018-08-17T11:32:21.116Z,52.50
2018-08-17T11:34:52.000Z,52.70
2018-08-17T11:37:20.301Z,53.00
2018-08-17T11:40:05.236Z,53.90
2018-08-17T11:42:33.886Z,53.40
2018-08-17T11:45:01.917Z,52.50
2018-08-17T11:47:29.517Z,52.80
2018-08-17T11:49:57.339Z,52.00
2018-08-17T11:52:25.409Z,51.20
2018-08-17T11:54:53.001Z,51.00
2018-08-17T11:57:20.568Z,50.90
2018-08-17T11:59:53.751Z,51.10
2018-08-17T12:02:22.357Z,52.00
2018-08-17T12:04:50.000Z,52.10
2018-08-17T12:07:17.598Z,52.90
2018-08-17T12:09:51.810Z,53.50
2018-08-17T12:12:19.398Z,53.90
2018-08-17T12:14:48.128Z,53.60
2018-08-17T12:17:16.245Z,53.10
2018-08-17T12:19:43.833Z,52.80
2018-08-17T12:22:11.570Z,51.60
2018-08-17T12:24:39.250Z,49.80
2018-08-17T12:27:06.799Z,47.70
2018-08-17T12:29:34.469Z,46.30
2018-08-17T12:32:02.154Z,45.70
2018-08-17T12:34:29.779Z,46.20
2018-08-17T12:36:57.348Z,47.50
2018-08-17T12:39:25.271Z,48.70
2018-08-17T12:41:52.970Z,49.90
2018-08-17T12:44:20.606Z,50.60
2018-08-17T12:46:48.160Z,50.90
2018-08-17T12:49:15.723Z,51.90
2018-08-17T12:51:43.324Z,52.70
2018-08-17T12:54:16.266Z,53.50
2018-08-17T12:56:44.002Z,53.90
2018-08-17T12:59:11.673Z,54.40
2018-08-17T13:01:39.247Z,53.80
2018-08-17T13:04:06.831Z,53.10
2018-08-17T13:06:34.356Z,53.30
2018-08-17T13:09:01.948Z,52.70
2018-08-17T13:11:29.504Z,51.80
2018-08-17T13:14:01.612Z,51.80
2018-08-17T13:16:29.227Z,51.40
2018-08-17T13:18:56.833Z,51.50
2018-08-17T13:21:24.436Z,50.30
2018-08-17T13:23:52.090Z,48.70
2018-08-17T13:26:19.647Z,47.10
2018-08-17T13:28:47.213Z,46.00
2018-08-17T13:31:14.781Z,45.70
2018-08-17T13:33:42.333Z,45.80
2018-08-17T13:36:09.971Z,45.50
2018-08-17T13:38:37.520Z,45.50
2018-08-17T13:41:05.115Z,44.80
2018-08-17T13:43:32.716Z,44.50
2018-08-17T13:46:02.507Z,44.90
2018-08-17T13:48:30.153Z,44.50
2018-08-17T13:50:57.722Z,43.90
2018-08-17T13:53:25.390Z,43.60
2018-08-17T13:55:52.988Z,43.40
2018-08-17T13:58:21.401Z,43.50
2018-08-17T14:00:48.976Z,43.50
2018-08-17T14:03:16.542Z,43.90
2018-08-17T14:05:44.132Z,44.60
2018-08-17T14:08:11.773Z,45.10
2018-08-17T14:10:39.360Z,45.80
2018-08-17T14:13:06.920Z,46.70
2018-08-17T14:15:34.591Z,47.00
2018-08-17T14:18:02.157Z,47.20
2018-08-17T14:20:29.802Z,46.80
2018-08-17T14:22:57.500Z,45.80
2018-08-17T14:25:25.052Z,45.70
2018-08-17T14:27:52.662Z,45.30
2018-08-17T14:30:20.210Z,45.40
2018-08-17T14:32:47.830Z,45.50
2018-08-17T14:35:15.511Z,45.50
2018-08-17T14:37:43.172Z,45.70
2018-08-17T14:40:10.854Z,45.70
2018-08-17T14:42:38.805Z,45.10
2018-08-17T14:45:07.164Z,44.20
2018-08-17T14:47:34.933Z,43.20
2018-08-17T14:50:02.615Z,42.20
2018-08-17T14:52:30.172Z,42.00
2018-08-17T14:54:57.737Z,41.40
2018-08-17T14:57:25.282Z,40.60
2018-08-17T14:59:52.896Z,39.70
2018-08-17T15:02:20.473Z,38.60
2018-08-17T15:04:48.113Z,37.80
2018-08-17T15:07:15.644Z,37.00
2018-08-17T15:09:43.208Z,36.60
2018-08-17T15:12:10.758Z,36.10
2018-08-17T15:14:38.305Z,35.80
2018-08-17T15:17:05.879Z,35.50
2018-08-17T15:19:33.472Z,35.20
2018-08-17T15:22:01.105Z,34.90
2018-08-17T15:24:28.788Z,34.60
2018-08-17T15:26:56.422Z,34.30
2018-08-17T15:29:24.070Z,34.10
2018-08-17T15:31:51.670Z,33.90
2018-08-17T15:34:19.271Z,33.80
2018-08-17T15:36:46.886Z,33.70
2018-08-17T15:39:14.528Z,33.50
2018-08-17T15:41:43.944Z,33.40
2018-08-17T15:44:17.271Z,33.30
2018-08-17T15:46:44.962Z,33.20
2018-08-17T15:49:19.676Z,33.20
2018-08-17T15:51:47.355Z,33.00
2018-08-17T15:54:14.957Z,33.00
2018-08-17T15:56:42.548Z,32.90
2018-08-17T15:59:10.154Z,32.70
2018-08-17T16:01:37.789Z,32.70
2018-08-17T16:04:05.407Z,32.60
2018-08-17T16:06:34.096Z,32.60
2018-08-17T16:09:01.799Z,32.60
2018-08-17T16:11:29.368Z,32.60
2018-08-17T16:13:57.068Z,32.60
2018-08-17T16:16:24.801Z,32.60
2018-08-17T16:18:52.416Z,32.50
2018-08-17T16:21:20.038Z,32.40
2018-08-17T16:23:47.614Z,32.10
2018-08-17T16:26:15.357Z,31.90
2018-08-17T16:28:43.013Z,31.70
2018-08-17T16:31:15.115Z,31.50
2018-08-17T16:33:42.854Z,31.20
2018-08-17T16:36:10.508Z,31.00
2018-08-17T16:38:38.886Z,30.80
2018-08-17T16:41:07.000Z,30.60
2018-08-17T16:43:42.738Z,30.50
2018-08-17T16:46:10.577Z,30.40
2018-08-17T16:48:39.145Z,30.30
2018-08-17T16:51:06.998Z,30.10
2018-08-17T16:53:34.729Z,30.00
2018-08-17T16:56:02.501Z,29.90
2018-08-17T16:58:30.243Z,29.80
2018-08-17T17:00:58.070Z,29.70
2018-08-17T17:03:25.729Z,29.50
2018-08-17T17:06:03.465Z,29.40
2018-08-17T17:08:31.952Z,29.30
2018-08-17T17:11:00.752Z,29.20
2018-08-17T17:13:28.629Z,29.10
2018-08-17T17:15:57.386Z,29.00
2018-08-17T17:18:25.045Z,28.90
2018-08-17T17:20:52.828Z,28.80
2018-08-17T17:23:20.449Z,28.70
2018-08-17T17:25:48.094Z,28.60
2018-08-17T17:28:15.762Z,28.50
2018-08-17T17:30:48.856Z,28.50
2018-08-17T17:33:16.512Z,28.40
2018-08-17T17:35:44.317Z,28.30
2018-08-17T17:38:12.473Z,28.20
2018-08-17T17:40:40.945Z,28.10
2018-08-17T17:43:08.960Z,28.00
2018-08-17T17:45:37.099Z,27.90
2018-08-17T17:48:04.973Z,27.80
2018-08-17T17:50:32.655Z,27.70
2018-08-17T17:53:01.209Z,27.60
2018-08-17T17:55:36.974Z,27.50
2018-08-17T17:58:04.787Z,27.40
2018-08-17T18:00:32.533Z,27.30
2018-08-17T18:03:00.264Z,27.30
2018-08-17T18:05:27.960Z,27.20
2018-08-17T18:08:03.625Z,27.20
2018-08-17T18:10:31.881Z,27.10
2018-08-17T18:12:59.547Z,27.00
2018-08-17T18:15:27.289Z,26.90
2018-08-17T18:17:55.067Z,26.90
2018-08-17T18:20:22.726Z,26.80
2018-08-17T18:22:50.352Z,26.70
2018-08-17T18:25:18.737Z,26.70
2018-08-17T18:27:47.551Z,26.60
2018-08-17T18:30:15.260Z,26.60
2018-08-17T18:32:42.955Z,26.60
2018-08-17T18:35:11.059Z,26.50
2018-08-17T18:37:38.824Z,26.50
2018-08-17T18:40:07.937Z,26.50
2018-08-17T18:42:35.662Z,26.40
2018-08-17T18:45:03.645Z,26.40
2018-08-17T18:47:31.435Z,26.30
2018-08-17T18:49:59.065Z,26.30
2018-08-17T18:52:26.909Z,26.20
2018-08-17T18:54:54.614Z,26.20
2018-08-17T18:57:22.393Z,26.10
2018-08-17T18:59:50.219Z,26.10
2018-08-17T19:02:18.058Z,26.10
2018-08-17T19:04:45.791Z,26.10
2018-08-17T19:07:13.510Z,26.00
2018-08-17T19:09:41.348Z,26.00
2018-08-17T19:12:09.193Z,26.00
2018-08-17T19:14:42.865Z,26.00
2018-08-17T19:17:15.048Z,25.90
2018-08-17T19:19:42.821Z,25.80
2018-08-17T19:22:10.552Z,25.80
2018-08-17T19:24:38.185Z,25.70
2018-08-17T19:27:06.121Z,25.70
2018-08-17T19:29:33.935Z,25.60
2018-08-17T19:32:01.641Z,25.60
2018-08-17T19:34:30.622Z,25.60
2018-08-17T19:36:58.273Z,25.60
2018-08-17T19:39:33.824Z,25.70
2018-08-17T19:42:01.994Z,25.60
2018-08-17T19:44:30.088Z,25.60
2018-08-17T19:46:57.828Z,25.60
2018-08-17T19:49:25.634Z,25.60
2018-08-17T19:51:53.273Z,25.50
2018-08-17T19:54:21.055Z,25.50
2018-08-17T19:56:48.740Z,25.50
2018-08-17T19:59:16.430Z,25.40
2018-08-17T20:01:44.322Z,25.40
2018-08-17T20:04:12.008Z,25.30
2018-08-17T20:06:39.729Z,25.30
2018-08-17T20:09:08.724Z,25.20
2018-08-17T20:11:36.546Z,25.20
2018-08-17T20:14:04.538Z,25.10
2018-08-17T20:16:32.251Z,25.10
2018-08-17T20:19:00.961Z,25.00
2018-08-17T20:21:28.677Z,25.00
2018-08-17T20:23:56.325Z,25.00
2018-08-17T20:26:25.194Z,25.00
2018-08-17T20:28:52.583Z,25.00
2018-08-17T20:31:20.267Z,25.00
2018-08-17T20:33:47.857Z,24.90
2018-08-17T20:36:22.276Z,24.90
2018-08-17T20:38:50.126Z,24.90
2018-08-17T20:41:18.302Z,24.80
2018-08-17T20:43:46.246Z,24.60
2018-08-17T20:46:13.890Z,24.50
2018-08-17T20:48:46.082Z,24.40
2018-08-17T20:51:18.255Z,24.40
2018-08-17T20:53:46.695Z,24.30
2018-08-17T20:56:14.580Z,24.10
2018-08-17T20:58:42.234Z,24.10
2018-08-17T21:01:09.911Z,24.00
2018-08-17T21:03:37.545Z,24.00
2018-08-17T21:06:05.185Z,24.00
2018-08-17T21:08:32.962Z,23.90
2018-08-17T21:11:00.567Z,23.90
2018-08-17T21:13:28.225Z,23.90
2018-08-17T21:15:55.988Z,23.90
2018-08-17T21:18:23.678Z,23.90
2018-08-17T21:20:51.273Z,23.80
2018-08-17T21:23:18.877Z,23.80
2018-08-17T21:25:46.531Z,23.70
2018-08-17T21:28:14.366Z,23.70
2018-08-17T21:30:42.016Z,23.70
2018-08-17T21:33:09.654Z,23.70
2018-08-17T21:35:37.262Z,23.70
2018-08-17T21:38:05.036Z,23.60
2018-08-17T21:40:33.358Z,23.60
2018-08-17T21:43:01.913Z,23.60
2018-08-17T21:45:29.823Z,23.60
2018-08-17T21:47:57.543Z,23.60
2018-08-17T21:50:25.143Z,23.50
2018-08-17T21:52:52.796Z,23.50
2018-08-17T21:55:20.441Z,23.60
2018-08-17T21:57:48.072Z,23.60
2018-08-17T22:00:30.912Z,23.60
2018-08-17T22:02:58.824Z,23.60
2018-08-17T22:05:29.493Z,23.60
2018-08-17T22:07:57.448Z,23.60
2018-08-17T22:10:25.109Z,23.50
2018-08-17T22:12:52.755Z,23.40
2018-08-17T22:15:20.345Z,23.40
2018-08-17T22:17:48.072Z,23.40
2018-08-17T22:20:15.644Z,23.40
2018-08-17T22:22:43.289Z,23.30
2018-08-17T22:25:11.610Z,23.30
2018-08-17T22:27:39.371Z,23.30
2018-08-17T22:30:19.823Z,23.20
2018-08-17T22:32:47.421Z,23.10
2018-08-17T22:35:15.188Z,23.10
2018-08-17T22:37:42.932Z,23.00
2018-08-17T22:40:10.571Z,23.00
2018-08-17T22:42:38.172Z,22.90
2018-08-17T22:45:06.224Z,22.90
2018-08-17T22:47:33.878Z,23.00
2018-08-17T22:50:01.516Z,22.80
2018-08-17T22:52:33.404Z,22.80
2018-08-17T22:55:02.275Z,22.80
2018-08-17T22:57:30.709Z,22.70
2018-08-17T23:00:12.079Z,22.60
2018-08-17T23:02:40.858Z,22.60
2018-08-17T23:05:10.265Z,22.50
2018-08-17T23:07:37.974Z,22.50
2018-08-17T23:10:07.512Z,22.50
2018-08-17T23:12:35.105Z,22.40
2018-08-17T23:15:02.848Z,22.40
2018-08-17T23:17:40.219Z,22.40
2018-08-17T23:20:08.362Z,22.50
2018-08-17T23:22:52.944Z,22.50
2018-08-17T23:25:20.606Z,22.50
2018-08-17T23:27:48.995Z,22.50
2018-08-17T23:30:16.626Z,22.40
2018-08-17T23:32:44.853Z,22.40
2018-08-17T23:35:12.535Z,22.30
2018-08-17T23:37:40.195Z,22.30
2018-08-17T23:40:08.714Z,22.30
2018-08-17T23:42:36.502Z,22.40
2018-08-17T23:45:05.485Z,22.40
2018-08-17T23:47:33.674Z,22.40
2018-08-17T23:50:01.476Z,22.40
2018-08-17T23:52:29.159Z,22.40
2018-08-17T23:54:56.966Z,22.40
2018-08-17T23:57:24.688Z,22.50
2018-08-17T23:59:52.500Z,22.50
